South Woodbury, Vermont
Current Conditions -  °F | °C
As of 3:51 PM on Thursday 20 Nov 2014 (Local Time) from KMPV Reporting Station
Overcast Overcast  
Wind Chill: 28°   Ceiling: 5500
Heat Index: 28°   Visibility: 10mi
Dew Point: 11°   Wind: 3mph
Humidity: 49%   Direction: 230°SW
Pressure: 29.76"   Gusts: NA
Location:  44.3541°N, 72.4394°W
Report Text: KMPV 202051Z AUTO 23003KT 10SM OVC055 M02/M12 A2976 RMK AO2 SLP096 60000 T10221117 51011
Loading
Personal Weather Stations






























Interactive Weather Map New forecast layout! Learn more

10-Day Weather Forecast

Advertisements
Track Severe Weather on mobile